createdAt,value
2018-04-21T00:00:33.790Z,83.92
2018-04-21T00:01:33.777Z,84.58
2018-04-21T00:02:33.761Z,84.30
2018-04-21T00:03:33.753Z,83.82
2018-04-21T00:04:33.739Z,82.67
2018-04-21T00:05:33.730Z,82.48
2018-04-21T00:06:33.730Z,82.67
2018-04-21T00:07:33.700Z,83.05
2018-04-21T00:08:33.684Z,83.34
2018-04-21T00:09:33.676Z,83.05
2018-04-21T00:10:33.657Z,83.25
2018-04-21T00:11:33.642Z,83.25
2018-04-21T00:12:33.629Z,82.76
2018-04-21T00:13:33.614Z,82.76
2018-04-21T00:14:33.603Z,82.67
2018-04-21T00:15:33.588Z,83.30
2018-04-21T00:16:33.574Z,83.39
2018-04-21T00:17:33.563Z,83.68
2018-04-21T00:18:33.549Z,84.74
2018-04-21T00:19:33.542Z,84.79
2018-04-21T00:20:33.520Z,85.27
2018-04-21T00:21:33.514Z,85.46
2018-04-21T00:22:33.494Z,85.65
2018-04-21T00:23:33.483Z,85.84
2018-04-21T00:24:33.463Z,85.65
2018-04-21T00:25:33.462Z,85.84
2018-04-21T00:26:33.437Z,86.51
2018-04-21T00:27:33.423Z,87.18
2018-04-21T00:28:33.417Z,88.62
2018-04-21T00:29:33.398Z,88.13
2018-04-21T00:30:33.394Z,88.13
2018-04-21T00:31:33.372Z,88.43
2018-04-21T00:32:33.365Z,87.66
2018-04-21T00:33:33.347Z,86.99
2018-04-21T00:34:33.329Z,87.23
2018-04-21T00:35:33.326Z,85.79
2018-04-21T00:36:33.303Z,85.69
2018-04-21T00:37:33.291Z,85.69
2018-04-21T00:38:33.282Z,85.98
2018-04-21T00:39:33.260Z,85.69
2018-04-21T00:40:33.250Z,85.60
2018-04-21T00:41:33.238Z,85.60
2018-04-21T00:42:33.224Z,85.69
2018-04-21T00:43:33.214Z,85.12
2018-04-21T00:44:33.191Z,84.35
2018-04-21T00:45:33.185Z,84.06
2018-04-21T00:46:33.176Z,84.26
2018-04-21T00:47:33.160Z,84.06
2018-04-21T00:48:33.143Z,83.68
2018-04-21T00:49:33.130Z,83.59
2018-04-21T00:50:33.114Z,83.59
2018-04-21T00:51:33.110Z,83.49
2018-04-21T00:52:33.091Z,83.59
2018-04-21T00:53:33.073Z,83.64
2018-04-21T00:54:33.072Z,84.88
2018-04-21T00:55:33.044Z,85.46
2018-04-21T00:56:33.031Z,86.13
2018-04-21T00:57:33.021Z,86.99
2018-04-21T00:58:33.005Z,86.90
2018-04-21T00:59:32.991Z,86.51
2018-04-21T01:00:32.977Z,86.80
2018-04-21T01:01:32.960Z,86.51
2018-04-21T01:02:32.948Z,86.61
2018-04-21T01:03:32.939Z,86.51
2018-04-21T01:04:32.921Z,85.94
2018-04-21T01:05:32.914Z,84.98
2018-04-21T01:06:32.894Z,85.03
2018-04-21T01:07:32.878Z,85.80
2018-04-21T01:08:32.864Z,86.47
2018-04-21T01:09:32.855Z,86.94
2018-04-21T01:10:32.851Z,87.43
2018-04-21T01:11:32.823Z,88.48
2018-04-21T01:12:32.811Z,89.43
2018-04-21T01:13:32.794Z,90.06
2018-04-21T01:14:32.784Z,90.73
2018-04-21T01:15:32.777Z,90.44
2018-04-21T01:16:32.755Z,90.92
2018-04-21T01:17:32.746Z,90.53
2018-04-21T01:18:32.736Z,90.73
2018-04-21T01:19:32.714Z,90.25
2018-04-21T01:20:32.701Z,90.44
2018-04-21T01:21:32.688Z,90.82
2018-04-21T01:22:32.679Z,90.44
2018-04-21T01:23:32.653Z,90.34
2018-04-21T01:24:32.644Z,90.73
2018-04-21T01:25:32.629Z,90.82
2018-04-21T01:26:32.614Z,90.53
2018-04-21T01:27:32.600Z,90.73
2018-04-21T01:28:32.588Z,91.11
2018-04-21T01:29:32.576Z,91.68
2018-04-21T01:30:32.559Z,91.97
2018-04-21T01:31:32.551Z,91.97
2018-04-21T01:32:32.530Z,91.88
2018-04-21T01:33:32.519Z,91.53
2018-04-21T01:34:32.505Z,90.20
2018-04-21T01:35:32.487Z,89.24
2018-04-21T01:36:32.472Z,89.20
2018-04-21T01:37:32.464Z,89.43
2018-04-21T01:38:32.450Z,90.20
2018-04-21T01:39:32.438Z,91.30
2018-04-21T01:40:32.418Z,91.35
2018-04-21T01:41:32.408Z,90.48
2018-04-21T01:42:32.394Z,90.34
2018-04-21T01:43:32.373Z,89.81
2018-04-21T01:44:32.361Z,90.10
2018-04-21T01:45:32.348Z,89.72
2018-04-21T01:46:32.333Z,89.77
2018-04-21T01:47:32.323Z,89.48
2018-04-21T01:48:32.304Z,90.16
2018-04-21T01:49:32.292Z,90.44
2018-04-21T01:50:32.274Z,91.68
2018-04-21T01:51:32.261Z,91.11
2018-04-21T01:52:32.252Z,91.88
2018-04-21T01:53:32.233Z,91.02
2018-04-21T01:54:32.221Z,91.11
2018-04-21T01:55:32.204Z,90.92
2018-04-21T01:56:32.194Z,90.82
2018-04-21T01:57:32.178Z,91.11
2018-04-21T01:58:32.165Z,91.88
2018-04-21T01:59:32.152Z,91.16
2018-04-21T02:00:32.139Z,92.11
2018-04-21T02:01:32.124Z,92.97
2018-04-21T02:02:32.110Z,93.55
2018-04-21T02:03:32.095Z,93.65
2018-04-21T02:04:32.079Z,93.84
2018-04-21T02:05:32.063Z,93.84
2018-04-21T02:06:32.058Z,94.22
2018-04-21T02:07:32.042Z,93.55
2018-04-21T02:08:32.027Z,94.22
2018-04-21T02:09:32.013Z,93.55
2018-04-21T02:10:31.993Z,94.22
2018-04-21T02:11:31.978Z,93.40
2018-04-21T02:12:31.965Z,93.50
2018-04-21T02:13:31.952Z,92.83
2018-04-21T02:14:31.934Z,92.64
2018-04-21T02:15:31.925Z,92.83
2018-04-21T02:16:31.906Z,92.83
2018-04-21T02:17:31.890Z,92.40
2018-04-21T02:18:31.878Z,92.25
2018-04-21T02:19:31.865Z,92.88
2018-04-21T02:20:31.852Z,92.07
2018-04-21T02:21:31.835Z,92.16
2018-04-21T02:22:31.821Z,91.49
2018-04-21T02:23:31.804Z,90.92
2018-04-21T02:24:31.796Z,92.07
2018-04-21T02:25:31.781Z,91.97
2018-04-21T02:26:31.763Z,91.30
2018-04-21T02:27:31.754Z,90.68
2018-04-21T02:28:31.736Z,90.20
2018-04-21T02:29:31.723Z,90.39
2018-04-21T02:30:31.710Z,90.68
2018-04-21T02:31:31.692Z,90.49
2018-04-21T02:32:31.678Z,90.20
2018-04-21T02:33:31.667Z,90.06
2018-04-21T02:34:31.651Z,89.29
2018-04-21T02:35:31.633Z,88.43
2018-04-21T02:36:31.632Z,87.86
2018-04-21T02:37:31.610Z,87.86
2018-04-21T02:38:31.600Z,87.86
2018-04-21T02:39:31.577Z,87.76
2018-04-21T02:40:31.564Z,87.48
2018-04-21T02:41:31.551Z,86.90
2018-04-21T02:42:31.532Z,86.90
2018-04-21T02:43:31.522Z,86.71
2018-04-21T02:44:31.509Z,86.71
2018-04-21T02:45:31.492Z,86.71
2018-04-21T02:46:31.482Z,86.28
2018-04-21T02:47:31.463Z,86.23
2018-04-21T02:48:31.449Z,86.33
2018-04-21T02:49:31.432Z,86.52
2018-04-21T02:50:31.417Z,86.23
2018-04-21T02:51:31.404Z,86.04
2018-04-21T02:52:31.387Z,86.23
2018-04-21T02:53:31.377Z,86.52
2018-04-21T02:54:31.361Z,86.61
2018-04-21T02:55:31.344Z,86.80
2018-04-21T02:56:31.331Z,86.23
2018-04-21T02:57:31.317Z,87.66
2018-04-21T02:58:31.301Z,88.15
2018-04-21T02:59:31.288Z,88.53
2018-04-21T03:00:31.271Z,88.91
2018-04-21T03:01:31.257Z,88.91
2018-04-21T03:02:31.245Z,88.05
2018-04-21T03:03:31.228Z,87.95
2018-04-21T03:04:31.213Z,87.38
2018-04-21T03:05:31.201Z,88.15
2018-04-21T03:06:31.191Z,88.05
2018-04-21T03:07:31.170Z,87.95
2018-04-21T03:08:31.158Z,87.19
2018-04-21T03:09:31.141Z,86.90
2018-04-21T03:10:31.131Z,86.71
2018-04-21T03:11:31.111Z,86.71
2018-04-21T03:12:31.099Z,86.90
2018-04-21T03:13:31.087Z,87.00
2018-04-21T03:14:31.071Z,86.90
2018-04-21T03:15:31.056Z,87.09
2018-04-21T03:16:31.040Z,86.71
2018-04-21T03:17:31.031Z,86.14
2018-04-21T03:18:31.011Z,86.71
2018-04-21T03:19:31.002Z,86.61
2018-04-21T03:20:30.981Z,86.23
2018-04-21T03:21:30.977Z,86.61
2018-04-21T03:22:30.951Z,85.47
2018-04-21T03:23:30.937Z,85.75
2018-04-21T03:24:30.934Z,85.71
2018-04-21T03:25:30.910Z,87.24
2018-04-21T03:26:30.898Z,87.62
2018-04-21T03:27:30.889Z,88.48
2018-04-21T03:28:30.871Z,89.63
2018-04-21T03:29:30.863Z,89.73
2018-04-21T03:30:30.842Z,89.53
2018-04-21T03:31:30.825Z,89.82
2018-04-21T03:32:30.807Z,90.39
2018-04-21T03:33:30.796Z,90.97
2018-04-21T03:34:30.778Z,91.59
2018-04-21T03:35:30.765Z,91.88
2018-04-21T03:36:30.751Z,92.74
2018-04-21T03:37:30.744Z,92.64
2018-04-21T03:38:30.721Z,92.55
2018-04-21T03:39:30.707Z,92.64
2018-04-21T03:40:30.691Z,92.74
2018-04-21T03:41:30.676Z,91.97
2018-04-21T03:42:30.662Z,90.92
2018-04-21T03:43:30.646Z,90.45
2018-04-21T03:44:30.634Z,91.40
2018-04-21T03:45:30.621Z,91.40
2018-04-21T03:46:30.607Z,90.64
2018-04-21T03:47:30.591Z,89.68
2018-04-21T03:48:30.575Z,89.78
2018-04-21T03:49:30.561Z,88.92
2018-04-21T03:50:30.552Z,89.15
2018-04-21T03:51:30.531Z,88.68
2018-04-21T03:52:30.516Z,88.68
2018-04-21T03:53:30.505Z,88.77
2018-04-21T03:54:30.487Z,88.77
2018-04-21T03:55:30.471Z,88.68
2018-04-21T03:56:30.459Z,88.87
2018-04-21T03:57:30.445Z,89.15
2018-04-21T03:58:30.434Z,88.87
2018-04-21T03:59:30.416Z,89.63
2018-04-21T04:00:30.399Z,89.73
2018-04-21T04:01:30.387Z,89.97
2018-04-21T04:02:30.374Z,89.78
2018-04-21T04:03:30.355Z,90.06
2018-04-21T04:04:30.337Z,89.92
2018-04-21T04:05:30.332Z,89.63
2018-04-21T04:06:30.308Z,89.15
2018-04-21T04:07:30.290Z,89.06
2018-04-21T04:08:30.285Z,88.68
2018-04-21T04:09:30.273Z,88.20
2018-04-21T04:10:30.251Z,88.39
2018-04-21T04:11:30.230Z,88.29
2018-04-21T04:12:30.225Z,88.48
2018-04-21T04:13:30.211Z,88.77
2018-04-21T04:14:30.193Z,88.39
2018-04-21T04:15:30.174Z,88.20
2018-04-21T04:16:30.158Z,88.29
2018-04-21T04:17:30.143Z,88.39
2018-04-21T04:18:30.129Z,88.29
2018-04-21T04:19:30.112Z,88.58
2018-04-21T04:20:30.097Z,88.58
2018-04-21T04:21:30.085Z,88.48
2018-04-21T04:22:30.071Z,88.39
2018-04-21T04:23:30.056Z,88.48
2018-04-21T04:24:30.040Z,88.39
2018-04-21T04:25:30.021Z,88.29
2018-04-21T04:26:30.013Z,88.29
2018-04-21T04:27:29.990Z,88.48
2018-04-21T04:28:29.980Z,88.20
2018-04-21T04:29:29.962Z,88.87
2018-04-21T04:30:29.953Z,88.68
2018-04-21T04:31:29.931Z,88.87
2018-04-21T04:32:29.916Z,88.54
2018-04-21T04:33:29.900Z,89.25
2018-04-21T04:34:29.890Z,89.15
2018-04-21T04:35:29.867Z,89.63
2018-04-21T04:36:29.855Z,89.92
2018-04-21T04:37:29.844Z,89.97
2018-04-21T04:38:29.829Z,89.78
2018-04-21T04:39:29.811Z,89.78
2018-04-21T04:40:29.791Z,90.16
2018-04-21T04:41:29.781Z,90.06
2018-04-21T04:42:29.761Z,90.35
2018-04-21T04:43:29.758Z,90.16
2018-04-21T04:44:29.733Z,90.25
2018-04-21T04:45:29.717Z,90.64
2018-04-21T04:46:29.702Z,90.06
2018-04-21T04:47:29.688Z,90.25
2018-04-21T04:48:29.671Z,90.45
2018-04-21T04:49:29.655Z,90.64
2018-04-21T04:50:29.639Z,90.73
2018-04-21T04:51:29.621Z,90.64
2018-04-21T04:52:29.608Z,90.45
2018-04-21T04:53:29.591Z,90.83
2018-04-21T04:54:29.582Z,91.21
2018-04-21T04:55:29.561Z,91.59
2018-04-21T04:56:29.546Z,91.30
2018-04-21T04:57:29.532Z,91.78
2018-04-21T04:58:29.512Z,92.07
2018-04-21T04:59:29.498Z,91.69
2018-04-21T05:00:29.485Z,91.97
2018-04-21T05:01:29.473Z,91.78
2018-04-21T05:02:29.452Z,92.93
2018-04-21T05:03:29.436Z,92.64
2018-04-21T05:04:29.419Z,92.21
2018-04-21T05:05:29.404Z,91.50
2018-04-21T05:06:29.391Z,91.97
2018-04-21T05:07:29.371Z,91.97
2018-04-21T05:08:29.362Z,92.55
2018-04-21T05:09:29.341Z,92.79
2018-04-21T05:10:29.325Z,92.55
2018-04-21T05:11:29.310Z,92.69
2018-04-21T05:12:29.292Z,93.26
2018-04-21T05:13:29.277Z,92.74
2018-04-21T05:14:29.261Z,92.79
2018-04-21T05:15:29.245Z,92.83
2018-04-21T05:16:29.230Z,92.69
2018-04-21T05:17:29.217Z,92.50
2018-04-21T05:18:29.198Z,92.60
2018-04-21T05:19:29.184Z,92.60
2018-04-21T05:20:29.165Z,92.83
2018-04-21T05:21:29.153Z,92.36
2018-04-21T05:22:29.135Z,92.74
2018-04-21T05:23:29.124Z,92.16
2018-04-21T05:24:29.103Z,92.41
2018-04-21T05:25:29.094Z,92.26
2018-04-21T05:26:29.072Z,91.97
2018-04-21T05:27:29.059Z,91.50
2018-04-21T05:28:29.043Z,91.88
2018-04-21T05:29:29.028Z,92.83
2018-04-21T05:30:29.011Z,91.88
2018-04-21T05:31:28.993Z,91.30
2018-04-21T05:32:28.980Z,90.92
2018-04-21T05:33:28.964Z,91.02
2018-04-21T05:34:28.948Z,91.02
2018-04-21T05:35:28.932Z,91.69
2018-04-21T05:36:28.913Z,91.11
2018-04-21T05:37:28.906Z,91.30
2018-04-21T05:38:28.883Z,91.02
2018-04-21T05:39:28.873Z,90.16
2018-04-21T05:40:28.856Z,90.64
2018-04-21T05:41:28.838Z,90.06
2018-04-21T05:42:28.831Z,90.45
2018-04-21T05:43:28.813Z,90.45
2018-04-21T05:44:28.795Z,90.35
2018-04-21T05:45:28.783Z,90.25
2018-04-21T05:46:28.759Z,90.64
2018-04-21T05:47:28.752Z,91.02
2018-04-21T05:48:28.723Z,90.64
2018-04-21T05:49:28.712Z,91.02
2018-04-21T05:50:28.691Z,89.78
2018-04-21T05:51:28.685Z,90.25
2018-04-21T05:52:28.662Z,89.59
2018-04-21T05:53:28.652Z,89.78
2018-04-21T05:54:28.632Z,89.87
2018-04-21T05:55:28.616Z,90.54
2018-04-21T05:56:28.601Z,90.35
2018-04-21T05:57:28.581Z,90.16
2018-04-21T05:58:28.572Z,89.68
2018-04-21T05:59:28.552Z,89.78
2018-04-21T06:00:28.538Z,90.11
2018-04-21T06:01:28.519Z,89.49
2018-04-21T06:02:28.502Z,89.39
2018-04-21T06:03:28.492Z,89.39
2018-04-21T06:04:28.479Z,89.20
2018-04-21T06:05:28.458Z,88.96
2018-04-21T06:06:28.445Z,89.15
2018-04-21T06:07:28.439Z,89.53
2018-04-21T06:08:28.414Z,87.82
2018-04-21T06:09:28.394Z,88.48
2018-04-21T06:10:28.378Z,88.96
2018-04-21T06:11:28.364Z,88.54
2018-04-21T06:12:28.350Z,87.87
2018-04-21T06:13:28.333Z,87.96
2018-04-21T06:14:28.313Z,87.53
2018-04-21T06:15:28.315Z,88.44
2018-04-21T06:16:28.283Z,88.10
2018-04-21T06:17:28.271Z,88.01
2018-04-21T06:18:28.253Z,88.15
2018-04-21T06:19:28.241Z,87.62
2018-04-21T06:20:28.222Z,87.24
2018-04-21T06:21:28.208Z,87.15
2018-04-21T06:22:28.189Z,87.77
2018-04-21T06:23:28.192Z,87.43
2018-04-21T06:24:28.161Z,87.53
2018-04-21T06:25:28.144Z,87.43
2018-04-21T06:26:28.129Z,88.01
2018-04-21T06:27:28.115Z,86.76
2018-04-21T06:28:28.093Z,86.57
2018-04-21T06:29:28.082Z,86.96
2018-04-21T06:30:28.069Z,87.43
2018-04-21T06:31:28.049Z,85.62
2018-04-21T06:32:28.035Z,85.71
2018-04-21T06:33:28.020Z,85.14
2018-04-21T06:34:28.009Z,84.95
2018-04-21T06:35:27.989Z,84.76
2018-04-21T06:36:27.975Z,85.38
2018-04-21T06:37:27.957Z,84.85
2018-04-21T06:38:27.933Z,84.56
2018-04-21T06:39:27.923Z,84.38
2018-04-21T06:40:27.905Z,84.42
2018-04-21T06:41:27.896Z,84.38
2018-04-21T06:42:27.873Z,84.70
2018-04-21T06:43:27.860Z,85.47
2018-04-21T06:44:27.843Z,84.99
2018-04-21T06:45:27.830Z,84.23
2018-04-21T06:46:27.817Z,84.42
2018-04-21T06:47:27.792Z,83.56
2018-04-21T06:48:27.784Z,83.84
2018-04-21T06:49:27.780Z,84.52
2018-04-21T06:50:27.752Z,85.57
2018-04-21T06:51:27.734Z,84.52
2018-04-21T06:52:27.721Z,84.61
2018-04-21T06:53:27.707Z,83.27
2018-04-21T06:54:27.688Z,83.84
2018-04-21T06:55:27.669Z,84.89
2018-04-21T06:56:27.712Z,84.89
2018-04-21T06:57:27.644Z,83.03
2018-04-21T06:58:27.627Z,83.40
2018-04-21T06:59:27.606Z,82.03
2018-04-21T07:00:27.591Z,82.60
2018-04-21T07:01:27.576Z,83.27
2018-04-21T07:02:27.562Z,83.03
2018-04-21T07:03:27.544Z,82.70
2018-04-21T07:04:27.532Z,82.22
2018-04-21T07:05:27.515Z,82.31
2018-04-21T07:06:27.503Z,83.08
2018-04-21T07:07:27.484Z,82.79
2018-04-21T07:08:27.469Z,82.60
2018-04-21T07:09:27.453Z,83.56
2018-04-21T07:10:27.439Z,83.27
2018-04-21T07:11:27.420Z,82.60
2018-04-21T07:12:27.405Z,82.79
2018-04-21T07:13:27.390Z,82.60
2018-04-21T07:14:27.375Z,82.51
2018-04-21T07:15:27.361Z,83.22
2018-04-21T07:16:27.343Z,82.45
2018-04-21T07:17:27.325Z,82.45
2018-04-21T07:18:27.312Z,82.26
2018-04-21T07:19:27.310Z,80.82
2018-04-21T07:20:27.280Z,81.78
2018-04-21T07:21:27.276Z,81.40
2018-04-21T07:22:27.256Z,80.92
2018-04-21T07:23:27.231Z,81.40
2018-04-21T07:24:27.219Z,81.40
2018-04-21T07:25:27.204Z,81.68
2018-04-21T07:26:27.188Z,82.93
2018-04-21T07:27:27.169Z,82.17
2018-04-21T07:28:27.164Z,82.07
2018-04-21T07:29:27.143Z,80.87
2018-04-21T07:30:27.129Z,80.87
2018-04-21T07:31:27.121Z,79.81
2018-04-21T07:32:27.093Z,80.10
2018-04-21T07:33:27.086Z,79.43
2018-04-21T07:34:27.064Z,78.76
2018-04-21T07:35:27.044Z,79.81
2018-04-21T07:36:27.031Z,79.14
2018-04-21T07:37:27.019Z,78.76
2018-04-21T07:38:27.006Z,78.28
2018-04-21T07:39:26.992Z,78.47
2018-04-21T07:40:26.971Z,78.66
2018-04-21T07:41:26.999Z,79.81
2018-04-21T07:42:26.943Z,79.52
2018-04-21T07:43:26.924Z,78.86
2018-04-21T07:44:26.909Z,77.80
2018-04-21T07:45:26.896Z,78.28
2018-04-21T07:46:26.882Z,78.42
2018-04-21T07:47:26.869Z,77.70
2018-04-21T07:48:26.853Z,77.42
2018-04-21T07:49:26.839Z,78.28
2018-04-21T07:50:26.828Z,77.99
2018-04-21T07:51:26.810Z,78.13
2018-04-21T07:52:26.791Z,77.84
2018-04-21T07:53:26.778Z,77.65
2018-04-21T07:54:26.767Z,77.17
2018-04-21T07:55:26.744Z,77.21
2018-04-21T07:56:26.732Z,76.15
2018-04-21T07:57:26.719Z,76.44
2018-04-21T07:58:26.713Z,76.15
2018-04-21T07:59:26.685Z,76.82
2018-04-21T08:00:26.676Z,77.02
2018-04-21T08:01:26.660Z,75.48
2018-04-21T08:02:26.642Z,76.98
2018-04-21T08:03:26.634Z,77.75
2018-04-21T08:04:26.614Z,77.26
2018-04-21T08:05:26.596Z,75.83
2018-04-21T08:06:26.582Z,76.35
2018-04-21T08:07:26.576Z,76.25
2018-04-21T08:08:26.555Z,76.92
2018-04-21T08:09:26.536Z,75.87
2018-04-21T08:10:26.521Z,76.25
2018-04-21T08:11:26.509Z,77.11
2018-04-21T08:12:26.509Z,76.54
2018-04-21T08:13:26.479Z,76.00
2018-04-21T08:14:26.464Z,75.62
2018-04-21T08:15:26.453Z,73.80
2018-04-21T08:16:26.440Z,74.27
2018-04-21T08:17:26.428Z,74.15
2018-04-21T08:18:26.407Z,74.76
2018-04-21T08:19:26.395Z,75.04
2018-04-21T08:20:26.395Z,74.18
2018-04-21T08:21:26.376Z,74.27
2018-04-21T08:22:26.371Z,75.14
2018-04-21T08:23:26.334Z,75.43
2018-04-21T08:24:26.320Z,74.95
2018-04-21T08:25:26.303Z,75.43
2018-04-21T08:26:26.294Z,74.57
2018-04-21T08:27:26.275Z,75.23
2018-04-21T08:28:26.266Z,76.39
2018-04-21T08:29:26.251Z,76.29
2018-04-21T08:30:26.235Z,75.33
2018-04-21T08:31:26.260Z,74.95
2018-04-21T08:32:26.205Z,75.18
2018-04-21T08:33:26.193Z,74.60
2018-04-21T08:34:26.179Z,74.51
2018-04-21T08:35:26.162Z,74.31
2018-04-21T08:36:26.147Z,74.31
2018-04-21T08:37:26.142Z,74.22
2018-04-21T08:38:26.122Z,74.22
2018-04-21T08:39:26.103Z,74.79
2018-04-21T08:40:26.089Z,73.41
2018-04-21T08:41:26.079Z,74.60
2018-04-21T08:42:26.073Z,75.08
2018-04-21T08:43:26.061Z,73.97
2018-04-21T08:44:26.032Z,72.53
2018-04-21T08:45:26.020Z,74.06
2018-04-21T08:46:26.006Z,73.58
2018-04-21T08:47:25.994Z,72.53
2018-04-21T08:48:25.989Z,72.43
2018-04-21T08:49:25.976Z,72.81
2018-04-21T08:50:25.949Z,72.81
2018-04-21T08:51:25.934Z,73.00
2018-04-21T08:52:25.923Z,72.24
2018-04-21T08:53:25.913Z,72.53
2018-04-21T08:54:25.904Z,72.37
2018-04-21T08:55:25.880Z,72.56
2018-04-21T08:56:25.899Z,71.95
2018-04-21T08:57:25.867Z,72.47
2018-04-21T08:58:25.843Z,72.75
2018-04-21T08:59:25.826Z,71.70
2018-04-21T09:00:25.814Z,71.03
2018-04-21T09:01:25.799Z,71.51
2018-04-21T09:02:25.807Z,71.09
2018-04-21T09:03:25.775Z,70.90
2018-04-21T09:04:25.766Z,71.19
2018-04-21T09:05:25.746Z,73.20
2018-04-21T09:06:25.731Z,74.10
2018-04-21T09:07:25.724Z,71.31
2018-04-21T09:08:25.705Z,71.19
2018-04-21T09:09:25.693Z,70.93
2018-04-21T09:10:25.677Z,71.41
2018-04-21T09:11:25.662Z,70.36
2018-04-21T09:12:25.655Z,70.74
2018-04-21T09:13:25.636Z,72.56
2018-04-21T09:14:25.632Z,72.08
2018-04-21T09:15:25.607Z,71.12
2018-04-21T09:16:25.594Z,69.49
2018-04-21T09:17:25.590Z,71.12
2018-04-21T09:18:25.572Z,70.93
2018-04-21T09:19:25.562Z,70.17
2018-04-21T09:20:25.552Z,71.22
2018-04-21T09:21:25.563Z,73.72
2018-04-21T09:22:25.512Z,74.19
2018-04-21T09:23:25.497Z,72.66
2018-04-21T09:24:25.484Z,72.75
2018-04-21T09:25:25.472Z,71.70
2018-04-21T09:26:25.456Z,71.70
2018-04-21T09:27:25.443Z,71.89
2018-04-21T09:28:25.434Z,70.26
2018-04-21T09:29:25.417Z,68.85
2018-04-21T09:30:25.403Z,69.91
2018-04-21T09:31:25.398Z,70.29
2018-04-21T09:32:25.379Z,70.39
2018-04-21T09:33:25.363Z,70.29
2018-04-21T09:34:25.365Z,69.53
2018-04-21T09:35:25.336Z,69.43
2018-04-21T09:36:25.321Z,69.62
2018-04-21T09:37:25.305Z,69.72
2018-04-21T09:38:25.357Z,70.49
2018-04-21T09:39:25.286Z,69.53
2018-04-21T09:40:25.272Z,69.91
2018-04-21T09:41:25.253Z,69.34
2018-04-21T09:42:25.245Z,70.58
2018-04-21T09:43:25.227Z,70.39
2018-04-21T09:44:25.213Z,71.96
2018-04-21T09:45:25.202Z,70.81
2018-04-21T09:46:25.191Z,70.52
2018-04-21T09:47:25.171Z,69.56
2018-04-21T09:48:25.158Z,69.21
2018-04-21T09:49:25.162Z,69.37
2018-04-21T09:50:25.141Z,69.46
2018-04-21T09:51:25.121Z,69.46
2018-04-21T09:52:25.109Z,70.29
2018-04-21T09:53:25.091Z,69.72
2018-04-21T09:54:25.083Z,70.20
2018-04-21T09:55:25.073Z,70.01
2018-04-21T09:56:25.065Z,70.29
2018-04-21T09:57:25.040Z,69.43
2018-04-21T09:58:25.031Z,70.29
2018-04-21T09:59:25.012Z,69.46
2018-04-21T10:00:25.003Z,69.08
2018-04-21T10:01:24.996Z,68.70
2018-04-21T10:02:24.976Z,68.41
2018-04-21T10:03:24.970Z,67.58
2018-04-21T10:04:24.959Z,70.46
2018-04-21T10:05:24.936Z,68.02
2018-04-21T10:06:24.920Z,70.43
2018-04-21T10:07:24.915Z,70.43
2018-04-21T10:08:24.899Z,71.19
2018-04-21T10:09:24.884Z,68.70
2018-04-21T10:10:24.875Z,67.93
2018-04-21T10:11:24.861Z,68.79
2018-04-21T10:12:24.844Z,68.12
2018-04-21T10:13:24.837Z,68.79
2018-04-21T10:14:24.826Z,69.75
2018-04-21T10:15:24.804Z,68.41
2018-04-21T10:16:24.795Z,69.37
2018-04-21T10:17:24.782Z,68.21
2018-04-21T10:18:24.767Z,69.37
2018-04-21T10:19:24.755Z,68.70
2018-04-21T10:20:24.737Z,69.40
2018-04-21T10:21:24.728Z,68.25
2018-04-21T10:22:24.709Z,68.54
2018-04-21T10:23:24.715Z,68.15
2018-04-21T10:24:24.686Z,69.06
2018-04-21T10:25:24.681Z,66.94
2018-04-21T10:26:24.662Z,67.77
2018-04-21T10:27:24.656Z,68.48
2018-04-21T10:28:24.633Z,67.22
2018-04-21T10:29:24.623Z,68.38
2018-04-21T10:30:24.607Z,68.25
2018-04-21T10:31:24.593Z,68.63
2018-04-21T10:32:24.583Z,69.50
2018-04-21T10:33:24.575Z,69.34
2018-04-21T10:34:24.556Z,70.50
2018-04-21T10:35:24.542Z,70.50
2018-04-21T10:36:24.531Z,69.63
2018-04-21T10:37:24.519Z,67.90
2018-04-21T10:38:24.506Z,69.53
2018-04-21T10:39:24.500Z,69.15
2018-04-21T10:40:24.474Z,69.92
2018-04-21T10:41:24.466Z,68.44
2018-04-21T10:42:24.454Z,67.00
2018-04-21T10:43:24.435Z,68.19
2018-04-21T10:44:24.433Z,67.80
2018-04-21T10:45:24.411Z,68.67
2018-04-21T10:46:24.396Z,68.19
2018-04-21T10:47:24.386Z,69.73
2018-04-21T10:48:24.375Z,67.90
2018-04-21T10:49:24.363Z,66.27
2018-04-21T10:50:24.358Z,67.03
2018-04-21T10:51:24.334Z,65.91
2018-04-21T10:52:24.318Z,67.83
2018-04-21T10:53:24.311Z,66.58
2018-04-21T10:54:24.293Z,65.33
2018-04-21T10:55:24.289Z,66.97
2018-04-21T10:56:24.274Z,66.88
2018-04-21T10:57:24.255Z,67.00
2018-04-21T10:58:24.246Z,64.56
2018-04-21T10:59:24.244Z,65.33
2018-04-21T11:00:24.217Z,68.51
2018-04-21T11:01:24.205Z,66.39
2018-04-21T11:02:24.195Z,66.97
2018-04-21T11:03:24.183Z,66.68
2018-04-21T11:04:24.183Z,65.91
2018-04-21T11:05:24.152Z,68.70
2018-04-21T11:06:24.146Z,65.91
2018-04-21T11:07:24.135Z,67.74
2018-04-21T11:08:24.119Z,64.95
2018-04-21T11:09:24.108Z,65.14
2018-04-21T11:10:24.096Z,65.53
2018-04-21T11:11:24.079Z,64.08
2018-04-21T11:12:24.064Z,65.37
2018-04-21T11:13:24.050Z,64.21
2018-04-21T11:14:24.042Z,64.40
2018-04-21T11:15:24.032Z,63.79
2018-04-21T11:16:24.016Z,63.60
2018-04-21T11:17:24.006Z,64.08
2018-04-21T11:18:23.988Z,65.05
2018-04-21T11:19:23.979Z,62.87
2018-04-21T11:20:23.977Z,63.06
2018-04-21T11:21:23.949Z,64.02
2018-04-21T11:22:23.941Z,64.12
2018-04-21T11:23:23.932Z,65.56
2018-04-21T11:24:23.915Z,65.75
2018-04-21T11:25:23.897Z,67.77
2018-04-21T11:26:23.895Z,65.66
2018-04-21T11:27:23.873Z,67.68
2018-04-21T11:28:23.881Z,65.56
2018-04-21T11:29:23.847Z,66.24
2018-04-21T11:30:23.843Z,66.33
2018-04-21T11:31:23.828Z,66.33
2018-04-21T11:32:23.823Z,62.80
2018-04-21T11:33:23.801Z,62.41
2018-04-21T11:34:23.799Z,62.77
2018-04-21T11:35:23.782Z,61.83
2018-04-21T11:36:23.770Z,62.22
2018-04-21T11:37:23.750Z,60.68
2018-04-21T11:38:23.742Z,60.20
2018-04-21T11:39:23.729Z,62.70
2018-04-21T11:40:23.727Z,64.34
2018-04-21T11:41:23.717Z,64.15
2018-04-21T11:42:23.692Z,65.50
2018-04-21T11:43:23.684Z,61.80
2018-04-21T11:44:23.666Z,61.80
2018-04-21T11:45:23.655Z,62.99
2018-04-21T11:46:23.655Z,62.99
2018-04-21T11:47:23.629Z,63.18
2018-04-21T11:48:23.615Z,62.80
2018-04-21T11:49:23.604Z,62.99
2018-04-21T11:50:23.594Z,62.99
2018-04-21T11:51:23.582Z,62.32
2018-04-21T11:52:23.565Z,60.97
2018-04-21T11:53:23.558Z,61.45
2018-04-21T11:54:23.549Z,60.97
2018-04-21T11:55:23.536Z,63.57
2018-04-21T11:56:23.528Z,62.41
2018-04-21T11:57:23.509Z,62.15
2018-04-21T11:58:23.497Z,62.63
2018-04-21T11:59:23.488Z,62.63
2018-04-21T12:00:23.477Z,63.02
2018-04-21T12:01:23.466Z,60.90
2018-04-21T12:02:23.459Z,60.71
2018-04-21T12:03:23.435Z,62.70
2018-04-21T12:04:23.435Z,61.87
2018-04-21T12:05:23.448Z,61.83
2018-04-21T12:06:23.412Z,63.89
2018-04-21T12:07:23.386Z,59.45
2018-04-21T12:08:23.388Z,58.40
2018-04-21T12:09:23.367Z,58.59
2018-04-21T12:10:23.352Z,59.75
2018-04-21T12:11:23.346Z,60.80
2018-04-21T12:12:23.326Z,60.71
2018-04-21T12:13:23.316Z,61.68
2018-04-21T12:14:23.313Z,59.65
2018-04-21T12:15:23.297Z,59.65
2018-04-21T12:16:23.280Z,57.05
2018-04-21T12:17:23.262Z,56.18
2018-04-21T12:18:23.253Z,56.09
2018-04-21T12:19:23.247Z,59.36
2018-04-21T12:20:23.235Z,60.03
2018-04-21T12:21:23.227Z,60.93
2018-04-21T12:22:23.207Z,56.85
2018-04-21T12:23:23.196Z,55.73
2018-04-21T12:24:23.185Z,59.78
2018-04-21T12:25:23.177Z,54.93
2018-04-21T12:26:23.161Z,56.57
2018-04-21T12:27:23.146Z,55.41
2018-04-21T12:28:23.137Z,54.16
2018-04-21T12:29:23.126Z,56.09
2018-04-21T12:30:23.109Z,55.22
2018-04-21T12:31:23.094Z,54.74
2018-04-21T12:32:23.082Z,55.41
2018-04-21T12:33:23.078Z,56.47
2018-04-21T12:34:23.060Z,55.51
2018-04-21T12:35:23.050Z,54.35
2018-04-21T12:36:23.041Z,54.44
2018-04-21T12:37:23.032Z,52.91
2018-04-21T12:38:23.010Z,54.74
2018-04-21T12:39:23.003Z,56.49
2018-04-21T12:40:22.986Z,52.91
2018-04-21T12:41:22.978Z,52.83
2018-04-21T12:42:22.966Z,56.11
2018-04-21T12:43:22.963Z,53.00
2018-04-21T12:44:22.943Z,54.35
2018-04-21T12:45:22.925Z,51.26
2018-04-21T12:46:22.914Z,52.04
2018-04-21T12:47:22.901Z,54.44
2018-04-21T12:48:22.897Z,54.74
2018-04-21T12:49:22.887Z,52.04
2018-04-21T12:50:22.871Z,51.20
2018-04-21T12:51:22.854Z,52.93
2018-04-21T12:52:22.853Z,51.68